createdAt,value
2023-07-26T00:01:00.432Z,0.50
2023-07-26T00:05:03.600Z,0.40
2023-07-26T00:09:09.828Z,0.43
2023-07-26T00:13:12.976Z,0.50
2023-07-26T00:17:17.608Z,0.47
2023-07-26T00:21:20.699Z,0.47
2023-07-26T00:25:24.269Z,0.40
2023-07-26T00:29:27.843Z,0.30
2023-07-26T00:33:33.403Z,0.43
2023-07-26T00:37:36.843Z,0.60
2023-07-26T00:41:40.772Z,0.50
2023-07-26T00:45:44.762Z,0.40
2023-07-26T00:49:49.952Z,0.85
2023-07-26T00:53:53.479Z,0.30
2023-07-26T00:57:59.120Z,0.47
2023-07-26T01:02:02.633Z,0.65
2023-07-26T01:06:17.753Z,0.60
2023-07-26T01:10:26.737Z,0.40
2023-07-26T01:14:37.966Z,0.40
2023-07-26T01:18:41.425Z,0.40
2023-07-26T01:22:46.470Z,0.38
2023-07-26T01:26:49.711Z,0.45
2023-07-26T01:30:54.403Z,0.50
2023-07-26T01:34:57.804Z,0.35
2023-07-26T01:39:05.136Z,0.45
2023-07-26T01:43:08.492Z,0.40
2023-07-26T01:47:12.251Z,0.43
2023-07-26T01:51:15.398Z,0.28
2023-07-26T01:55:20.831Z,0.73
2023-07-26T01:59:24.116Z,0.50
2023-07-26T02:03:27.863Z,0.63
2023-07-26T02:07:31.199Z,0.50
2023-07-26T02:11:36.668Z,0.65
2023-07-26T02:15:39.820Z,0.50
2023-07-26T02:19:43.575Z,0.70
2023-07-26T02:23:47.284Z,0.70
2023-07-26T02:27:52.204Z,0.50
2023-07-26T02:31:56.169Z,0.50
2023-07-26T02:36:00.861Z,0.88
2023-07-26T02:40:04.939Z,0.73
2023-07-26T02:44:09.803Z,0.95
2023-07-26T02:48:13.866Z,1.00
2023-07-26T02:52:17.171Z,1.00
2023-07-26T02:56:21.000Z,0.80
2023-07-26T03:00:25.684Z,0.95
2023-07-26T03:04:29.316Z,1.02
2023-07-26T03:08:32.512Z,1.50
2023-07-26T03:12:36.272Z,1.63
2023-07-26T03:16:44.728Z,1.30
2023-07-26T03:20:48.698Z,1.67
2023-07-26T03:24:52.075Z,1.45
2023-07-26T03:28:55.645Z,1.88
2023-07-26T03:33:00.579Z,1.50
2023-07-26T03:37:04.603Z,1.60
2023-07-26T03:41:08.799Z,1.60
2023-07-26T03:45:12.734Z,2.08
2023-07-26T03:49:17.445Z,2.33
2023-07-26T03:53:20.585Z,2.22
2023-07-26T03:57:23.675Z,1.27
2023-07-26T04:01:27.306Z,1.90
2023-07-26T04:05:32.756Z,1.63
2023-07-26T04:09:36.105Z,1.67
2023-07-26T04:13:41.009Z,1.88
2023-07-26T04:17:45.086Z,1.60
2023-07-26T04:21:50.155Z,1.63
2023-07-26T04:25:54.373Z,1.40
2023-07-26T04:29:57.302Z,1.75
2023-07-26T04:34:01.148Z,2.00
2023-07-26T04:38:05.933Z,1.55
2023-07-26T04:42:09.157Z,1.60
2023-07-26T04:46:13.235Z,1.80
2023-07-26T04:50:16.890Z,1.88
2023-07-26T04:54:21.751Z,1.77
2023-07-26T04:58:25.046Z,1.75
2023-07-26T05:02:28.399Z,1.65
2023-07-26T05:06:32.613Z,1.90
2023-07-26T05:10:37.370Z,2.28
2023-07-26T05:14:42.866Z,1.58
2023-07-26T05:18:46.303Z,1.60
2023-07-26T05:22:50.078Z,2.47
2023-07-26T05:26:55.039Z,1.58
2023-07-26T05:30:59.073Z,2.35
2023-07-26T05:35:03.588Z,1.58
2023-07-26T05:39:06.864Z,1.60
2023-07-26T05:43:11.856Z,2.13
2023-07-26T05:47:16.700Z,1.88
2023-07-26T05:51:20.199Z,2.20
2023-07-26T05:55:23.203Z,2.28
2023-07-26T05:59:28.556Z,2.58
2023-07-26T06:03:31.876Z,1.80
2023-07-26T06:07:35.492Z,2.30
2023-07-26T06:11:47.269Z,2.00
2023-07-26T06:16:00.724Z,2.10
2023-07-26T06:20:05.180Z,2.53
2023-07-26T06:24:10.358Z,2.25
2023-07-26T06:28:13.556Z,2.03
2023-07-26T06:32:18.773Z,1.63
2023-07-26T06:36:22.094Z,2.03
2023-07-26T06:40:27.295Z,2.15
2023-07-26T06:44:30.414Z,1.73
2023-07-26T06:48:35.294Z,2.03
2023-07-26T06:52:38.462Z,1.90
2023-07-26T06:56:42.037Z,2.10
2023-07-26T07:00:47.833Z,1.60
2023-07-26T07:04:52.582Z,2.45
2023-07-26T07:08:58.258Z,1.88
2023-07-26T07:13:02.685Z,2.38
2023-07-26T07:17:06.391Z,1.98
2023-07-26T07:21:11.682Z,2.25
2023-07-26T07:25:15.092Z,1.98
2023-07-26T07:29:18.696Z,1.92
2023-07-26T07:33:22.276Z,1.80
2023-07-26T07:37:29.293Z,1.85
2023-07-26T07:41:32.750Z,2.10
2023-07-26T07:45:41.482Z,2.35
2023-07-26T07:49:48.234Z,2.35
2023-07-26T07:53:55.673Z,2.28
2023-07-26T07:57:58.790Z,2.30
2023-07-26T08:02:02.608Z,1.83
2023-07-26T08:06:05.845Z,1.90
2023-07-26T08:10:11.169Z,2.15
2023-07-26T08:14:14.092Z,1.83
2023-07-26T08:18:17.334Z,2.20
2023-07-26T08:22:20.393Z,1.77
2023-07-26T08:26:26.082Z,2.17
2023-07-26T08:30:29.652Z,1.65
2023-07-26T08:34:33.687Z,1.33
2023-07-26T08:38:37.648Z,1.73
2023-07-26T08:42:43.271Z,1.55
2023-07-26T08:46:51.665Z,1.35
2023-07-26T08:50:55.561Z,1.50
2023-07-26T08:55:00.319Z,1.50
2023-07-26T08:59:05.044Z,1.38
2023-07-26T09:03:12.003Z,1.15
2023-07-26T09:07:16.903Z,1.40
2023-07-26T09:11:26.397Z,1.52
2023-07-26T09:15:37.630Z,1.55
2023-07-26T09:19:41.116Z,1.80
2023-07-26T09:23:52.353Z,1.30
2023-07-26T09:27:57.435Z,0.63
2023-07-26T09:32:03.173Z,0.80
2023-07-26T09:36:07.537Z,0.80
2023-07-26T09:40:16.443Z,1.38
2023-07-26T09:44:24.231Z,1.17
2023-07-26T09:48:40.112Z,1.23
2023-07-26T09:52:45.317Z,1.35
2023-07-26T09:56:49.663Z,1.70
2023-07-26T10:00:56.119Z,1.40
2023-07-26T10:05:04.199Z,1.65
2023-07-26T10:09:07.544Z,1.90
2023-07-26T10:13:12.540Z,1.38
2023-07-26T10:17:16.225Z,1.73
2023-07-26T10:21:24.171Z,1.98
2023-07-26T10:25:27.361Z,1.77
2023-07-26T10:29:31.109Z,1.33
2023-07-26T10:33:36.028Z,1.00
2023-07-26T10:37:41.824Z,1.20
2023-07-26T10:41:52.330Z,1.08
2023-07-26T10:45:56.920Z,1.08
2023-07-26T10:50:08.287Z,1.42
2023-07-26T10:54:36.934Z,1.40
2023-07-26T10:58:51.222Z,0.90
2023-07-26T11:03:03.091Z,0.73
2023-07-26T11:07:06.661Z,1.07
2023-07-26T11:11:11.918Z,1.48
2023-07-26T11:16:11.376Z,2.17
2023-07-26T11:23:50.265Z,1.33
2023-07-26T11:27:56.027Z,2.17
2023-07-26T11:31:59.026Z,2.05
2023-07-26T11:36:04.315Z,1.45
2023-07-26T11:40:10.706Z,0.80
2023-07-26T11:44:16.299Z,0.80
2023-07-26T11:48:19.813Z,0.93
2023-07-26T11:52:23.063Z,0.77
2023-07-26T11:56:29.988Z,1.10
2023-07-26T12:00:36.411Z,1.60
2023-07-26T12:04:39.832Z,1.60
2023-07-26T12:08:43.483Z,1.95
2023-07-26T12:12:46.697Z,1.67
2023-07-26T12:16:52.414Z,1.67
2023-07-26T12:21:04.494Z,1.73
2023-07-26T12:25:11.007Z,2.33
2023-07-26T12:29:14.226Z,1.90
2023-07-26T12:33:19.185Z,2.30
2023-07-26T12:41:53.438Z,2.63
2023-07-26T12:46:01.679Z,2.78
2023-07-26T12:50:08.212Z,2.08
2023-07-26T12:54:11.717Z,2.65
2023-07-26T12:58:15.348Z,2.60
2023-07-26T13:02:19.689Z,3.22
2023-07-26T13:06:24.742Z,3.47
2023-07-26T13:10:36.561Z,3.00
2023-07-26T13:14:40.369Z,4.72
2023-07-26T13:18:43.583Z,4.15
2023-07-26T14:20:14.264Z,3.92
2023-07-26T14:24:17.683Z,3.42
2023-07-26T14:28:21.127Z,2.30
2023-07-26T14:32:26.368Z,2.17
2023-07-26T14:36:29.581Z,1.20
2023-07-26T14:40:34.233Z,1.58
2023-07-26T14:44:37.450Z,1.95
2023-07-26T14:48:44.531Z,1.70
2023-07-26T14:52:48.033Z,1.65
2023-07-26T14:57:08.647Z,1.67
2023-07-26T15:01:13.995Z,1.90
2023-07-26T15:05:18.971Z,2.13
2023-07-26T15:09:22.703Z,1.45
2023-07-26T15:13:27.174Z,1.88
2023-07-26T15:17:30.326Z,2.00
2023-07-26T15:21:35.861Z,0.60
2023-07-26T15:25:39.536Z,0.50
2023-07-26T15:29:43.108Z,0.65
2023-07-26T15:33:46.650Z,0.90
2023-07-26T15:37:51.485Z,0.65
2023-07-26T15:46:05.867Z,1.55
2023-07-26T15:50:15.297Z,1.33
2023-07-26T15:54:20.620Z,1.17
2023-07-26T15:58:26.892Z,1.00
2023-07-26T16:03:02.873Z,0.90
2023-07-26T16:11:04.711Z,1.02
2023-07-26T16:19:15.382Z,0.80
2023-07-26T16:23:18.421Z,0.40
2023-07-26T16:27:23.750Z,0.63
2023-07-26T16:31:26.912Z,0.90
2023-07-26T16:35:30.170Z,0.98
2023-07-26T16:39:34.135Z,1.02
2023-07-26T16:43:38.940Z,1.00
2023-07-26T16:47:42.421Z,1.17
2023-07-26T16:51:47.009Z,0.88
2023-07-26T16:55:50.236Z,1.30
2023-07-26T16:59:55.437Z,1.15
2023-07-26T17:03:58.837Z,1.10
2023-07-26T17:08:01.881Z,0.90
2023-07-26T17:12:05.770Z,0.88
2023-07-26T17:16:15.979Z,0.65
2023-07-26T17:20:20.190Z,0.70
2023-07-26T17:24:23.870Z,0.60
2023-07-26T17:28:26.891Z,0.80
2023-07-26T17:32:32.727Z,1.00
2023-07-26T17:36:36.284Z,0.77
2023-07-26T17:40:41.680Z,0.73
2023-07-26T17:44:44.607Z,0.50
2023-07-26T17:48:49.189Z,0.38
2023-07-26T17:52:52.496Z,0.73
2023-07-26T17:56:55.541Z,0.63
2023-07-26T18:01:00.587Z,0.52
2023-07-26T18:05:06.053Z,0.60
2023-07-26T18:09:12.427Z,0.60
2023-07-26T18:13:15.608Z,0.32
2023-07-26T18:17:18.864Z,0.52
2023-07-26T18:21:23.719Z,0.65
2023-07-26T18:25:27.691Z,0.60
2023-07-26T18:29:31.214Z,0.60
2023-07-26T18:33:40.422Z,0.45
2023-07-26T18:37:45.588Z,0.50
2023-07-26T18:41:50.060Z,0.82
2023-07-26T18:45:54.240Z,0.60
2023-07-26T18:49:57.833Z,0.70
2023-07-26T18:54:02.595Z,0.68
2023-07-26T18:58:05.947Z,0.65
2023-07-26T19:02:11.652Z,0.57
2023-07-26T19:06:14.872Z,0.85
2023-07-26T19:10:20.041Z,1.02
2023-07-26T19:14:23.392Z,0.70
2023-07-26T19:18:27.200Z,0.73
2023-07-26T19:22:30.536Z,1.00
2023-07-26T19:26:35.687Z,0.90
2023-07-26T19:30:39.437Z,0.80
2023-07-26T19:34:42.504Z,1.08
2023-07-26T19:38:45.804Z,1.00
2023-07-26T19:42:51.779Z,1.13
2023-07-26T19:46:54.869Z,1.00
2023-07-26T19:51:00.576Z,1.20
2023-07-26T19:55:04.825Z,1.33
2023-07-26T19:59:09.561Z,1.30
2023-07-26T20:03:12.792Z,1.48
2023-07-26T20:07:16.513Z,1.75
2023-07-26T20:11:19.611Z,1.40
2023-07-26T20:15:24.355Z,1.73
2023-07-26T20:19:27.564Z,1.85
2023-07-26T20:23:30.884Z,1.60
2023-07-26T20:27:34.532Z,1.60
2023-07-26T20:31:39.356Z,1.20
2023-07-26T20:35:42.747Z,0.98
2023-07-26T20:39:46.242Z,1.10
2023-07-26T20:43:49.371Z,0.98
2023-07-26T20:47:54.380Z,0.63
2023-07-26T20:51:57.782Z,0.98
2023-07-26T20:56:04.376Z,0.98
2023-07-26T21:00:08.965Z,1.20
2023-07-26T21:04:13.553Z,0.70
2023-07-26T21:08:18.674Z,0.70
2023-07-26T21:12:22.144Z,1.10
2023-07-26T21:16:25.328Z,0.82
2023-07-26T21:20:30.099Z,1.05
2023-07-26T21:24:33.300Z,1.10
2023-07-26T21:28:36.490Z,0.77
2023-07-26T21:32:40.276Z,0.80
2023-07-26T21:36:44.974Z,1.10
2023-07-26T21:40:48.209Z,0.90
2023-07-26T21:44:51.347Z,1.00
2023-07-26T21:48:54.789Z,1.00
2023-07-26T21:52:59.683Z,1.08
2023-07-26T21:57:02.932Z,1.05
2023-07-26T22:01:08.479Z,1.27
2023-07-26T22:05:12.548Z,1.10
2023-07-26T22:09:17.161Z,1.10
2023-07-26T22:13:20.498Z,0.73
2023-07-26T22:17:23.855Z,0.98
2023-07-26T22:21:27.391Z,1.27
2023-07-26T22:25:32.335Z,1.30
2023-07-26T22:29:35.790Z,0.88
2023-07-26T22:33:40.006Z,1.23
2023-07-26T22:37:44.758Z,1.23
2023-07-26T22:41:49.736Z,1.25
2023-07-26T22:45:53.513Z,1.13
2023-07-26T22:49:57.567Z,1.02
2023-07-26T22:54:00.972Z,0.90
2023-07-26T22:58:06.573Z,1.10
2023-07-26T23:02:10.602Z,0.88
2023-07-26T23:06:15.114Z,1.17
2023-07-26T23:10:21.584Z,0.95
2023-07-26T23:14:26.854Z,1.17
2023-07-26T23:18:31.387Z,0.93
2023-07-26T23:22:34.609Z,1.10
2023-07-26T23:26:38.395Z,1.30
2023-07-26T23:30:46.848Z,1.02
2023-07-26T23:34:50.570Z,0.95
2023-07-26T23:38:55.022Z,1.23
2023-07-26T23:42:58.624Z,0.73
2023-07-26T23:47:03.747Z,1.15
2023-07-26T23:51:07.500Z,1.25
2023-07-26T23:55:11.449Z,1.52
2023-07-26T23:59:14.614Z,1.60
